createdAt,value
2022-11-29T00:01:15.794Z,3.58
2022-11-29T00:04:18.803Z,3.53
2022-11-29T00:07:21.277Z,3.51
2022-11-29T00:10:24.406Z,3.44
2022-11-29T00:13:26.817Z,3.44
2022-11-29T00:16:29.909Z,3.37
2022-11-29T00:19:34.730Z,3.43
2022-11-29T00:22:38.462Z,3.43
2022-11-29T00:25:40.956Z,3.41
2022-11-29T00:28:44.091Z,3.37
2022-11-29T00:31:46.643Z,3.41
2022-11-29T00:34:49.698Z,3.44
2022-11-29T00:37:52.138Z,3.45
2022-11-29T00:40:55.130Z,3.38
2022-11-29T00:43:57.643Z,3.41
2022-11-29T00:47:00.874Z,3.49
2022-11-29T00:50:04.339Z,3.46
2022-11-29T00:53:07.589Z,3.45
2022-11-29T00:56:10.302Z,3.46
2022-11-29T00:59:13.423Z,3.58
2022-11-29T01:02:15.919Z,3.57
2022-11-29T01:05:18.975Z,3.52
2022-11-29T01:08:21.538Z,3.49
2022-11-29T01:11:27.345Z,3.52
2022-11-29T01:14:29.775Z,3.52
2022-11-29T01:17:35.814Z,3.57
2022-11-29T01:20:38.280Z,3.55
2022-11-29T01:23:42.060Z,3.56
2022-11-29T01:26:44.631Z,3.48
2022-11-29T01:29:47.665Z,3.45
2022-11-29T01:32:50.154Z,3.42
2022-11-29T01:35:55.931Z,3.49
2022-11-29T01:39:02.625Z,3.40
2022-11-29T01:42:05.766Z,3.37
2022-11-29T01:45:28.456Z,3.42
2022-11-29T01:48:33.018Z,3.43
2022-11-29T01:51:37.961Z,3.37
2022-11-29T01:54:46.871Z,3.25
2022-11-29T01:57:49.770Z,3.20
2022-11-29T02:00:52.993Z,3.12
2022-11-29T02:03:55.828Z,3.15
2022-11-29T02:06:58.903Z,3.19
2022-11-29T02:10:02.760Z,3.24
2022-11-29T02:13:33.516Z,3.21
2022-11-29T02:16:45.064Z,3.27
2022-11-29T02:20:30.222Z,3.26
2022-11-29T02:24:05.991Z,3.25
2022-11-29T02:27:27.589Z,3.23
2022-11-29T02:30:44.634Z,3.28
2022-11-29T02:34:11.159Z,3.25
2022-11-29T02:37:34.190Z,3.29
2022-11-29T02:41:08.026Z,3.34
2022-11-29T02:44:22.729Z,3.37
2022-11-29T02:47:44.669Z,3.29
2022-11-29T02:51:08.703Z,3.34
2022-11-29T02:54:29.970Z,3.32
2022-11-29T02:57:45.790Z,3.39
2022-11-29T03:01:26.047Z,3.31
2022-11-29T03:04:38.056Z,3.31
2022-11-29T03:08:05.664Z,3.29
2022-11-29T03:11:48.839Z,3.39
2022-11-29T03:15:19.211Z,3.29
2022-11-29T03:18:42.277Z,3.16
2022-11-29T03:21:45.234Z,3.25
2022-11-29T03:24:47.748Z,3.29
2022-11-29T03:28:03.176Z,3.34
2022-11-29T03:31:30.387Z,3.41
2022-11-29T03:35:03.060Z,3.32
2022-11-29T03:38:36.401Z,3.30
2022-11-29T03:41:53.018Z,3.30
2022-11-29T03:45:05.845Z,3.26
2022-11-29T03:48:17.199Z,3.29
2022-11-29T03:51:43.117Z,3.20
2022-11-29T03:55:04.338Z,3.21
2022-11-29T03:58:25.384Z,3.20
2022-11-29T04:01:37.624Z,3.23
2022-11-29T04:05:01.814Z,3.32
2022-11-29T04:08:41.969Z,3.33
2022-11-29T04:12:17.087Z,3.34
2022-11-29T04:15:27.175Z,3.29
2022-11-29T04:18:59.189Z,3.27
2022-11-29T04:22:32.786Z,3.25
2022-11-29T04:25:35.591Z,3.29
2022-11-29T04:28:57.067Z,3.28
2022-11-29T04:31:59.722Z,3.29
2022-11-29T04:35:02.389Z,3.31
2022-11-29T04:38:14.327Z,3.38
2022-11-29T04:41:51.186Z,3.39
2022-11-29T04:45:18.131Z,3.36
2022-11-29T04:48:26.640Z,3.29
2022-11-29T04:51:55.986Z,3.23
2022-11-29T04:55:31.115Z,3.24
2022-11-29T04:58:43.710Z,3.28
2022-11-29T05:01:49.252Z,3.19
2022-11-29T05:05:06.130Z,3.19
2022-11-29T05:08:31.652Z,3.18
2022-11-29T05:11:49.435Z,3.11
2022-11-29T05:15:21.020Z,3.08
2022-11-29T05:18:55.897Z,3.07
2022-11-29T05:22:40.534Z,3.10
2022-11-29T05:26:05.620Z,2.97
2022-11-29T05:29:15.970Z,2.99
2022-11-29T05:32:28.725Z,3.06
2022-11-29T05:35:55.709Z,2.97
2022-11-29T05:39:23.114Z,2.88
2022-11-29T05:42:36.856Z,2.99
2022-11-29T05:45:44.310Z,2.97
2022-11-29T05:49:04.852Z,2.91
2022-11-29T05:52:32.517Z,2.91
2022-11-29T05:55:55.511Z,2.96
2022-11-29T05:59:02.462Z,3.00
2022-11-29T06:02:26.247Z,3.03
2022-11-29T06:05:29.150Z,3.04
2022-11-29T06:08:40.418Z,3.01
2022-11-29T06:11:48.710Z,3.05
2022-11-29T06:15:35.636Z,3.09
2022-11-29T06:19:11.969Z,3.08
2022-11-29T06:22:37.746Z,3.10
2022-11-29T06:25:48.474Z,3.12
2022-11-29T06:29:13.228Z,3.18
2022-11-29T06:33:08.580Z,3.22
2022-11-29T06:36:25.967Z,3.24
2022-11-29T06:39:29.047Z,3.14
2022-11-29T06:42:31.754Z,3.23
2022-11-29T06:45:34.879Z,3.20
2022-11-29T06:48:48.722Z,3.13
2022-11-29T06:52:06.357Z,3.13
2022-11-29T06:55:24.561Z,3.15
2022-11-29T06:59:01.665Z,3.22
2022-11-29T07:02:04.473Z,3.21
2022-11-29T07:05:19.623Z,3.20
2022-11-29T07:08:24.000Z,3.31
2022-11-29T07:11:27.956Z,3.28
2022-11-29T07:14:30.958Z,3.32
2022-11-29T07:17:50.375Z,3.29
2022-11-29T07:21:07.206Z,3.37
2022-11-29T07:24:41.858Z,3.47
2022-11-29T07:27:57.178Z,3.43
2022-11-29T07:31:11.879Z,3.41
2022-11-29T07:34:48.720Z,3.41
2022-11-29T07:38:07.427Z,3.44
2022-11-29T07:41:41.083Z,3.48
2022-11-29T07:45:11.479Z,3.49
2022-11-29T07:48:16.731Z,3.45
2022-11-29T07:51:19.589Z,3.44
2022-11-29T07:54:22.515Z,3.47
2022-11-29T07:57:25.302Z,3.42
2022-11-29T08:00:28.303Z,3.40
2022-11-29T08:03:31.185Z,3.40
2022-11-29T08:06:34.063Z,3.36
2022-11-29T08:09:36.856Z,3.47
2022-11-29T08:12:45.217Z,3.49
2022-11-29T08:15:48.738Z,3.40
2022-11-29T08:18:53.835Z,3.44
2022-11-29T08:21:56.567Z,3.49
2022-11-29T08:24:59.998Z,3.51
2022-11-29T08:28:03.541Z,3.45
2022-11-29T08:31:09.510Z,3.51
2022-11-29T08:34:12.453Z,3.57
2022-11-29T08:37:15.239Z,3.54
2022-11-29T08:40:18.249Z,3.61
2022-11-29T08:43:21.173Z,3.58
2022-11-29T08:46:43.900Z,3.66
2022-11-29T08:50:01.893Z,3.63
2022-11-29T08:53:23.090Z,3.66
2022-11-29T08:57:16.503Z,3.65
2022-11-29T08:59:48.874Z,3.69
2022-11-29T09:02:51.638Z,3.68
2022-11-29T09:05:54.790Z,3.69
2022-11-29T09:09:00.644Z,3.93
2022-11-29T09:12:07.480Z,3.89
2022-11-29T09:15:11.014Z,4.07
2022-11-29T09:18:13.917Z,4.01
2022-11-29T09:21:17.317Z,4.08
2022-11-29T09:24:20.717Z,4.19
2022-11-29T09:27:23.452Z,4.35
2022-11-29T09:30:26.577Z,4.31
2022-11-29T09:33:29.311Z,4.51
2022-11-29T09:36:32.298Z,4.50
2022-11-29T09:39:35.126Z,4.58
2022-11-29T09:42:55.325Z,4.50
2022-11-29T09:46:27.520Z,4.48
2022-11-29T09:49:55.886Z,4.55
2022-11-29T09:53:26.529Z,4.39
2022-11-29T09:56:33.730Z,4.72
2022-11-29T09:59:42.932Z,9.70
2022-11-29T10:02:50.138Z,13.19
2022-11-29T10:06:02.480Z,16.84
2022-11-29T10:09:17.181Z,18.87
2022-11-29T10:15:17.866Z,21.74
2022-11-29T10:18:32.240Z,21.74
2022-11-29T10:21:38.672Z,19.00
2022-11-29T10:24:46.451Z,15.30
2022-11-29T10:27:49.237Z,12.48
2022-11-29T10:30:56.135Z,10.34
2022-11-29T10:34:02.790Z,8.84
2022-11-29T10:37:10.707Z,7.75
2022-11-29T10:40:18.753Z,7.08
2022-11-29T10:43:22.007Z,6.58
2022-11-29T10:46:37.088Z,6.36
2022-11-29T10:49:40.353Z,6.21
2022-11-29T10:52:42.935Z,6.00
2022-11-29T10:55:50.874Z,5.61
2022-11-29T10:58:55.523Z,5.35
2022-11-29T11:02:00.535Z,5.19
2022-11-29T11:05:11.896Z,5.26
2022-11-29T11:08:18.427Z,5.22
2022-11-29T11:11:33.795Z,5.12
2022-11-29T11:14:39.008Z,5.07
2022-11-29T11:17:56.502Z,5.00
2022-11-29T11:21:02.085Z,4.99
2022-11-29T11:24:05.404Z,4.81
2022-11-29T11:27:08.537Z,4.92
2022-11-29T11:30:31.790Z,4.91
2022-11-29T11:33:39.452Z,4.94
2022-11-29T11:36:41.942Z,4.93
2022-11-29T11:39:47.369Z,4.97
2022-11-29T11:42:50.014Z,5.07
2022-11-29T11:45:54.531Z,4.86
2022-11-29T11:48:56.961Z,4.83
2022-11-29T11:52:01.763Z,4.88
2022-11-29T11:55:30.524Z,4.86
2022-11-29T11:58:45.602Z,4.92
2022-11-29T12:01:48.195Z,4.94
2022-11-29T12:04:54.917Z,4.92
2022-11-29T12:08:09.019Z,4.92
2022-11-29T12:11:16.201Z,4.88
2022-11-29T12:14:28.455Z,4.78
2022-11-29T12:17:49.238Z,4.73
2022-11-29T12:20:58.302Z,4.81
2022-11-29T12:24:21.332Z,4.85
2022-11-29T12:27:23.828Z,4.81
2022-11-29T12:30:29.651Z,4.78
2022-11-29T12:34:08.584Z,4.86
2022-11-29T12:37:35.746Z,4.87
2022-11-29T12:41:01.873Z,4.83
2022-11-29T12:44:15.748Z,4.93
2022-11-29T12:47:36.163Z,4.91
2022-11-29T12:51:04.797Z,4.98
2022-11-29T12:54:39.456Z,5.02
2022-11-29T12:58:24.604Z,5.11
2022-11-29T13:01:49.065Z,5.12
2022-11-29T13:05:04.283Z,5.03
2022-11-29T13:08:15.933Z,5.05
2022-11-29T13:11:28.095Z,5.19
2022-11-29T13:14:56.731Z,5.11
2022-11-29T13:18:10.135Z,5.16
2022-11-29T13:21:19.383Z,5.10
2022-11-29T13:24:42.480Z,5.16
2022-11-29T13:27:58.885Z,5.16
2022-11-29T13:31:06.272Z,5.17
2022-11-29T13:34:34.502Z,5.14
2022-11-29T13:37:54.948Z,5.19
2022-11-29T13:41:04.716Z,5.17
2022-11-29T13:44:29.894Z,5.23
2022-11-29T13:47:32.436Z,5.11
2022-11-29T13:50:38.835Z,4.99
2022-11-29T13:53:48.573Z,5.00
2022-11-29T13:57:04.158Z,4.98
2022-11-29T14:00:07.447Z,5.08
2022-11-29T14:03:28.542Z,4.99
2022-11-29T14:06:38.925Z,4.97
2022-11-29T14:09:50.472Z,4.99
2022-11-29T14:12:57.565Z,5.00
2022-11-29T14:16:03.643Z,5.07
2022-11-29T14:19:09.107Z,5.00
2022-11-29T14:22:21.410Z,4.99
2022-11-29T14:25:50.716Z,5.05
2022-11-29T14:28:49.157Z,4.87
2022-11-29T14:31:54.993Z,4.97
2022-11-29T14:35:10.253Z,5.00
2022-11-29T14:38:32.745Z,4.96
2022-11-29T14:41:51.333Z,4.89
2022-11-29T14:44:58.442Z,4.84
2022-11-29T14:48:02.787Z,4.87
2022-11-29T14:51:13.011Z,4.91
2022-11-29T14:54:19.918Z,4.86
2022-11-29T14:58:01.334Z,4.85
2022-11-29T15:01:10.684Z,4.78
2022-11-29T15:04:13.922Z,4.77
2022-11-29T15:07:24.668Z,4.76
2022-11-29T15:10:31.424Z,4.85
2022-11-29T15:13:37.254Z,4.81
2022-11-29T15:16:48.218Z,4.75
2022-11-29T15:20:06.425Z,4.83
2022-11-29T15:23:18.568Z,4.83
2022-11-29T15:26:21.825Z,4.79
2022-11-29T15:29:25.836Z,4.81
2022-11-29T15:32:32.557Z,4.81
2022-11-29T15:35:36.358Z,4.73
2022-11-29T15:38:45.376Z,4.78
2022-11-29T15:41:47.895Z,4.77
2022-11-29T15:44:52.987Z,4.72
2022-11-29T15:47:56.172Z,4.75
2022-11-29T15:51:18.681Z,4.74
2022-11-29T15:54:27.281Z,4.71
2022-11-29T15:57:40.948Z,4.72
2022-11-29T16:00:49.793Z,4.68
2022-11-29T16:03:56.958Z,4.62
2022-11-29T16:06:59.720Z,4.69
2022-11-29T16:10:14.866Z,4.55
2022-11-29T16:13:31.192Z,4.55
2022-11-29T16:16:35.704Z,4.51
2022-11-29T16:19:40.039Z,4.53
2022-11-29T16:22:43.171Z,4.51
2022-11-29T16:25:58.618Z,4.47
2022-11-29T16:29:02.532Z,4.51
2022-11-29T16:32:26.086Z,4.47
2022-11-29T16:35:33.779Z,4.44
2022-11-29T16:38:36.493Z,4.43
2022-11-29T16:41:39.590Z,4.39
2022-11-29T16:44:45.351Z,4.47
2022-11-29T16:48:01.547Z,4.37
2022-11-29T16:51:10.273Z,4.49
2022-11-29T16:54:25.123Z,4.55
2022-11-29T16:57:28.940Z,4.42
2022-11-29T17:00:33.460Z,4.43
2022-11-29T17:03:35.966Z,4.43
2022-11-29T17:06:39.113Z,4.42
2022-11-29T17:09:42.048Z,4.45
2022-11-29T17:12:48.320Z,4.45
2022-11-29T17:15:51.080Z,4.47
2022-11-29T17:18:54.169Z,4.48
2022-11-29T17:21:56.728Z,4.45
2022-11-29T17:24:59.785Z,4.60
2022-11-29T17:28:02.895Z,4.56
2022-11-29T17:31:10.883Z,4.58
2022-11-29T17:34:13.542Z,4.63
2022-11-29T17:37:16.624Z,4.68
2022-11-29T17:40:20.207Z,4.64
2022-11-29T17:43:23.303Z,4.62
2022-11-29T17:46:28.883Z,4.62
2022-11-29T17:49:31.950Z,4.67
2022-11-29T17:52:34.796Z,4.69
2022-11-29T17:55:37.857Z,4.70
2022-11-29T17:58:41.220Z,4.68
2022-11-29T18:01:47.040Z,4.68
2022-11-29T18:04:50.149Z,4.75
2022-11-29T18:07:58.840Z,4.71
2022-11-29T18:11:29.870Z,4.85
2022-11-29T18:14:33.555Z,4.74
2022-11-29T18:17:36.604Z,4.80
2022-11-29T18:20:39.366Z,4.85
2022-11-29T18:23:44.151Z,4.77
2022-11-29T18:26:46.922Z,4.86
2022-11-29T18:29:49.924Z,4.91
2022-11-29T18:32:52.981Z,4.81
2022-11-29T18:36:02.384Z,4.78
2022-11-29T18:39:11.609Z,4.80
2022-11-29T18:42:14.482Z,4.84
2022-11-29T18:45:17.479Z,4.85
2022-11-29T18:48:20.346Z,4.76
2022-11-29T18:51:23.163Z,4.84
2022-11-29T18:54:26.045Z,4.77
2022-11-29T18:57:28.782Z,4.91
2022-11-29T19:00:31.644Z,4.82
2022-11-29T19:03:36.648Z,4.83
2022-11-29T19:06:40.574Z,4.81
2022-11-29T19:09:43.406Z,4.75
2022-11-29T19:12:46.607Z,4.77
2022-11-29T19:15:55.907Z,4.77
2022-11-29T19:19:00.032Z,4.86
2022-11-29T19:22:03.000Z,4.88
2022-11-29T19:25:09.182Z,4.73
2022-11-29T19:28:14.204Z,4.79
2022-11-29T19:31:19.733Z,4.77
2022-11-29T19:34:22.652Z,4.70
2022-11-29T19:37:25.444Z,4.63
2022-11-29T19:40:28.225Z,4.66
2022-11-29T19:43:31.822Z,4.64
2022-11-29T19:46:37.822Z,4.68
2022-11-29T19:49:46.161Z,4.91
2022-11-29T19:52:50.139Z,4.95
2022-11-29T19:55:53.017Z,5.01
2022-11-29T19:58:56.181Z,4.99
2022-11-29T20:01:59.685Z,5.05
2022-11-29T20:05:02.879Z,4.98
2022-11-29T20:08:05.541Z,5.01
2022-11-29T20:11:29.249Z,4.96
2022-11-29T20:14:31.754Z,4.95
2022-11-29T20:17:34.791Z,4.93
2022-11-29T20:20:37.530Z,4.90
2022-11-29T20:23:41.967Z,4.97
2022-11-29T20:29:49.903Z,4.86
2022-11-29T20:32:52.538Z,4.78
2022-11-29T20:36:23.786Z,4.82
2022-11-29T20:39:36.613Z,4.77
2022-11-29T20:45:56.135Z,4.78
2022-11-29T20:49:03.233Z,4.75
2022-11-29T20:52:18.476Z,4.67
2022-11-29T20:55:22.395Z,4.70
2022-11-29T20:58:26.565Z,4.77
2022-11-29T21:01:30.046Z,4.80
2022-11-29T21:04:32.599Z,4.72
2022-11-29T21:07:36.698Z,4.75
2022-11-29T21:10:39.115Z,4.84
2022-11-29T21:13:42.494Z,4.88
2022-11-29T21:16:45.431Z,4.88
2022-11-29T21:19:48.456Z,4.88
2022-11-29T21:23:11.044Z,4.81
2022-11-29T21:26:19.930Z,4.88
2022-11-29T21:29:23.259Z,4.91
2022-11-29T21:32:27.378Z,4.88
2022-11-29T21:35:30.047Z,4.93
2022-11-29T21:38:33.146Z,4.86
2022-11-29T21:41:36.328Z,4.86
2022-11-29T21:44:39.359Z,4.94
2022-11-29T21:47:42.210Z,5.01
2022-11-29T21:50:49.734Z,5.02
2022-11-29T21:53:52.203Z,5.04
2022-11-29T21:56:55.876Z,5.03
2022-11-29T21:59:58.385Z,5.04
2022-11-29T22:03:04.169Z,5.11
2022-11-29T22:06:09.744Z,5.14
2022-11-29T22:09:13.189Z,5.08
2022-11-29T22:12:33.795Z,5.05
2022-11-29T22:15:37.536Z,4.99
2022-11-29T22:18:40.273Z,5.01
2022-11-29T22:21:46.117Z,5.10
2022-11-29T22:24:49.388Z,5.13
2022-11-29T22:27:52.242Z,5.11
2022-11-29T22:31:08.799Z,5.14
2022-11-29T22:34:11.842Z,5.21
2022-11-29T22:37:14.576Z,5.18
2022-11-29T22:40:17.422Z,5.18
2022-11-29T22:43:20.162Z,5.23
2022-11-29T22:46:24.956Z,5.25
2022-11-29T22:49:27.751Z,5.21
2022-11-29T22:52:30.527Z,5.21
2022-11-29T22:55:33.258Z,5.22
2022-11-29T22:58:36.285Z,5.29
2022-11-29T23:01:40.933Z,5.22
2022-11-29T23:04:44.322Z,5.28
2022-11-29T23:07:55.082Z,5.29
2022-11-29T23:10:58.693Z,5.34
2022-11-29T23:14:01.352Z,5.26
2022-11-29T23:17:04.306Z,5.24
2022-11-29T23:20:07.837Z,5.24
2022-11-29T23:23:11.004Z,5.22
2022-11-29T23:26:22.887Z,5.22
2022-11-29T23:29:25.735Z,5.22
2022-11-29T23:32:28.472Z,5.26
2022-11-29T23:35:31.253Z,5.21
2022-11-29T23:38:34.272Z,5.25
2022-11-29T23:41:37.198Z,5.23
2022-11-29T23:44:39.923Z,5.23
2022-11-29T23:47:42.712Z,5.26
2022-11-29T23:50:46.307Z,5.25
2022-11-29T23:53:53.545Z,5.20
2022-11-29T23:56:56.302Z,5.22
2022-11-29T23:59:59.034Z,5.22
